Latest Weather Observations for South Channel Island

IDV60801

Issued at 9:31 am EST Tuesday 26 May 2015 (issued every 30 minutes, with the page automatically refreshed every 10 minutes)

About weather observations | Map of weather stations | Latest weather observations for VIC | Other Formats
Station Details ID: 086344 Name: SOUTH CHANNEL ISLAND Lat: -38.31 Lon: 144.80 Height: 9.0 m
Data from the previous 72 hours. | See also: Recent months for locations in Victoria
Date/Time
EST
Temp
°C
App
Temp
°C
Dew
Point
Rel
Hum
%
Delta-T
°C
Wind Press
QNH
hPa
Press
MSL
hPa
Rain
since 9 am
mm
Dir
 
Spd
km/h
Gust
km/h
Spd
kts
Gust
kts
26/09:30am - - - - - N 20 26 11 14 - - -
26/09:00am - - - - - N 20 24 11 13 - - -
26/08:30am - - - - - N 17 20 9 11 - - -
26/08:00am - - - - - N 17 20 9 11 - - -
26/07:30am - - - - - N 19 20 10 11 - - -
26/07:00am - - - - - N 17 19 9 10 - - -
26/06:30am - - - - - N 13 15 7 8 - - -
26/06:00am - - - - - N 17 19 9 10 - - -
26/05:30am - - - - - N 19 22 10 12 - - -
26/05:00am - - - - - N 17 19 9 10 - - -
26/04:30am - - - - - N 17 19 9 10 - - -
26/04:00am - - - - - N 17 19 9 10 - - -
26/03:30am - - - - - N 17 19 9 10 - - -
26/03:00am - - - - - N 13 15 7 8 - - -
26/02:30am - - - - - N 15 17 8 9 - - -
26/02:00am - - - - - N 17 19 9 10 - - -
26/01:30am - - - - - N 19 20 10 11 - - -
26/01:00am - - - - - NNE 17 20 9 11 - - -
26/12:30am - - - - - NNE 20 24 11 13 - - -
26/12:00am - - - - - NNE 22 26 12 14 - - -
 
Date/Time
EST
Temp
°C
App
Temp
°C
Dew
Point
Rel
Hum
%
Delta-T
°C
Wind Press
QNH
hPa
Press
MSL
hPa
Rain
since 9 am
mm
Dir
 
Spd
km/h
Gust
km/h
Spd
kts
Gust
kts
25/11:30pm - - - - - NNE 24 26 13 14 - - -
25/11:00pm - - - - - NNE 24 26 13 14 - - -
25/10:30pm - - - - - NE 22 26 12 14 - - -
25/10:00pm - - - - - NE 19 22 10 12 - - -
25/09:30pm - - - - - NE 19 20 10 11 - - -
25/09:00pm - - - - - NE 20 24 11 13 - - -
25/08:30pm - - - - - ENE 13 15 7 8 - - -
25/08:00pm - - - - - NE 13 17 7 9 - - -
25/07:30pm - - - - - ENE 11 13 6 7 - - -
25/07:00pm - - - - - ENE 11 11 6 6 - - -
25/06:30pm - - - - - E 9 11 5 6 - - -
25/06:00pm - - - - - E 9 11 5 6 - - -
25/05:30pm - - - - - E 11 13 6 7 - - -
25/05:00pm - - - - - ENE 11 13 6 7 - - -
25/04:30pm - - - - - ENE 13 13 7 7 - - -
25/04:00pm - - - - - ENE 11 11 6 6 - - -
25/03:30pm - - - - - NNE 13 15 7 8 - - -
25/03:00pm - - - - - NNE 15 17 8 9 - - -
25/02:30pm - - - - - NNE 13 15 7 8 - - -
25/02:00pm - - - - - NNE 15 17 8 9 - - -
25/01:30pm - - - - - NNE 13 15 7 8 - - -
25/01:00pm - - - - - NNE 15 17 8 9 - - -
25/12:30pm - - - - - NNE 17 19 9 10 - - -
25/12:00pm - - - - - NNE 13 17 7 9 - - -
25/11:30am - - - - - N 13 15 7 8 - - -
25/11:00am - - - - - NNW 9 11 5 6 - - -
25/10:30am - - - - - N 11 13 6 7 - - -
25/10:00am - - - - - N 9 11 5 6 - - -
25/09:30am - - - - - N 9 11 5 6 - - -
25/09:00am - - - - - NW 11 13 6 7 - - -
25/08:30am - - - - - NNW 11 13 6 7 - - -
25/08:00am - - - - - N 15 17 8 9 - - -
25/07:30am - - - - - NNW 15 19 8 10 - - -
25/07:00am - - - - - NNW 17 20 9 11 - - -
25/06:30am - - - - - N 20 24 11 13 - - -
25/06:00am - - - - - N 13 15 7 8 - - -
25/05:30am - - - - - N 11 13 6 7 - - -
25/05:00am - - - - - N 17 20 9 11 - - -
25/04:30am - - - - - N 19 24 10 13 - - -
25/04:00am - - - - - N 17 17 9 9 - - -
25/03:30am - - - - - N 19 20 10 11 - - -
25/03:00am - - - - - N 19 22 10 12 - - -
25/02:30am - - - - - N 17 20 9 11 - - -
25/02:00am - - - - - N 17 20 9 11 - - -
25/01:30am - - - - - N 15 19 8 10 - - -
25/01:00am - - - - - N 19 20 10 11 - - -
25/12:30am - - - - - N 17 19 9 10 - - -
25/12:00am - - - - - N 17 19 9 10 - - -
 
Date/Time
EST
Temp
°C
App
Temp
°C
Dew
Point
Rel
Hum
%
Delta-T
°C
Wind Press
QNH
hPa
Press
MSL
hPa
Rain
since 9 am
mm
Dir
 
Spd
km/h
Gust
km/h
Spd
kts
Gust
kts
24/11:30pm - - - - - NE 11 13 6 7 - - -
24/11:00pm - - - - - ENE 11 13 6 7 - - -
24/10:30pm - - - - - ENE 13 15 7 8 - - -
24/10:00pm - - - - - ENE 13 15 7 8 - - -
24/09:30pm - - - - - ENE 13 13 7 7 - - -
24/09:00pm - - - - - NE 9 15 5 8 - - -
24/08:30pm - - - - - NE 13 13 7 7 - - -
24/08:00pm - - - - - NE 9 11 5 6 - - -
24/07:30pm - - - - - NE 9 11 5 6 - - -
24/07:00pm - - - - - NE 7 9 4 5 - - -
24/06:30pm - - - - - NE 11 13 6 7 - - -
24/06:00pm - - - - - ESE 6 7 3 4 - - -
24/05:30pm - - - - - CALM 0 0 0 0 - - -
24/05:00pm - - - - - E 7 9 4 5 - - -
24/04:30pm - - - - - NE 6 7 3 4 - - -
24/04:00pm - - - - - NNE 7 9 4 5 - - -
24/03:30pm - - - - - NNE 7 9 4 5 - - -
24/03:00pm - - - - - NE 9 11 5 6 - - -
24/02:30pm - - - - - NNE 9 13 5 7 - - -
24/02:00pm - - - - - NNE 9 11 5 6 - - -
24/01:30pm - - - - - NNE 13 15 7 8 - - -
24/01:00pm - - - - - NNE 15 17 8 9 - - -
24/12:30pm - - - - - NNE 17 20 9 11 - - -
24/12:00pm - - - - - NNE 20 24 11 13 - - -
24/11:30am - - - - - NNE 20 28 11 15 - - -
24/11:00am - - - - - NNE 19 24 10 13 - - -
24/10:30am - - - - - NNE 17 22 9 12 - - -
24/10:00am - - - - - N 17 20 9 11 - - -
24/09:30am - - - - - N 15 19 8 10 - - -
24/09:00am - - - - - N 13 17 7 9 - - -
24/08:30am - - - - - NNW 13 19 7 10 - - -
24/08:00am - - - - - N 13 19 7 10 - - -
24/07:30am - - - - - NNE 13 19 7 10 - - -
24/07:00am - - - - - NNE 20 24 11 13 - - -
24/06:30am - - - - - NNE 19 26 10 14 - - -
24/06:00am - - - - - ENE 17 26 9 14 - - -
24/05:30am - - - - - ENE 15 20 8 11 - - -
24/05:00am - - - - - E 13 19 7 10 - - -
24/04:30am - - - - - NE 11 19 6 10 - - -
24/04:00am - - - - - ENE 13 17 7 9 - - -
24/03:30am - - - - - E 9 13 5 7 - - -
24/03:00am - - - - - NE 11 15 6 8 - - -
24/02:30am - - - - - E 9 15 5 8 - - -
24/02:00am - - - - - NE 9 17 5 9 - - -
24/01:30am - - - - - NNE 9 15 5 8 - - -
24/01:00am - - - - - ESE 7 11 4 6 - - -
24/12:30am - - - - - NE 6 9 3 5 - - -
24/12:00am - - - - - ESE 7 11 4 6 - - -
 
Date/Time
EST
Temp
°C
App
Temp
°C
Dew
Point
Rel
Hum
%
Delta-T
°C
Wind Press
QNH
hPa
Press
MSL
hPa
Rain
since 9 am
mm
Dir
 
Spd
km/h
Gust
km/h
Spd
kts
Gust
kts
23/11:30pm - - - - - SSW 7 11 4 6 - - -
23/11:00pm - - - - - SSE 13 15 7 8 - - -
23/10:30pm - - - - - SSE 13 17 7 9 - - -
23/10:00pm - - - - - SE 11 13 6 7 - - -
23/09:30pm - - - - - SSE 7 13 4 7 - - -
23/09:00pm - - - - - SSE 4 9 2 5 - - -
23/08:30pm - - - - - SE 9 13 5 7 - - -
23/08:00pm - - - - - SSE 9 19 5 10 - - -
23/07:30pm - - - - - SE 7 13 4 7 - - -
23/07:00pm - - - - - S 13 17 7 9 - - -
23/06:30pm - - - - - SSW 13 17 7 9 - - -
23/06:00pm - - - - - SSE 7 13 4 7 - - -
23/05:30pm - - - - - WSW 6 9 3 5 - - -
23/05:00pm - - - - - S 9 13 5 7 - - -
23/04:30pm - - - - - SSW 13 19 7 10 - - -
23/04:00pm - - - - - SSW 13 19 7 10 - - -
23/03:30pm - - - - - SSW 17 26 9 14 - - -
23/03:00pm - - - - - S 20 30 11 16 - - -
23/02:30pm - - - - - SSW 13 22 7 12 - - -
23/02:00pm - - - - - S 11 17 6 9 - - -
23/01:30pm - - - - - SSW 13 19 7 10 - - -
23/01:00pm - - - - - SSW 17 22 9 12 - - -
23/12:30pm - - - - - SSW 13 17 7 9 - - -
23/12:00pm - - - - - SSE 7 9 4 5 - - -
23/11:30am - - - - - SSW 9 11 5 6 - - -
23/11:00am - - - - - S 11 20 6 11 - - -
23/10:30am - - - - - SSW 17 26 9 14 - - -
23/10:00am - - - - - SSW 11 15 6 8 - - -

Other Formats:

Comma delimited format used in spreadsheet applications
http://www.bom.gov.au/fwo/IDV60801/IDV60801.94853.axf

JavaScript Object Notation format (JSON) in row-major order
http://www.bom.gov.au/fwo/IDV60801/IDV60801.94853.json